createdAt,value
2022-10-18T00:13:18.404Z,88.7
2022-10-18T00:33:18.324Z,88.7
2022-10-18T00:53:18.344Z,90.1
2022-10-18T01:13:18.367Z,88.7
2022-10-18T01:33:18.281Z,90.1
2022-10-18T01:53:18.302Z,89.9
2022-10-18T02:13:18.321Z,88.9
2022-10-18T02:33:18.237Z,88.9
2022-10-18T02:53:18.259Z,89.7
2022-10-18T03:13:18.275Z,89.2
2022-10-18T03:33:18.193Z,90.8
2022-10-18T03:53:18.209Z,90.1
2022-10-18T04:13:18.231Z,90.4
2022-10-18T04:33:18.145Z,89.7
2022-10-18T04:53:18.171Z,89.4
2022-10-18T05:13:18.183Z,89.3
2022-10-18T05:33:18.100Z,90.2
2022-10-18T05:53:18.118Z,89.9
2022-10-18T06:13:18.136Z,89.2
2022-10-18T06:33:18.155Z,89.1
2022-10-18T06:53:18.072Z,89.0
2022-10-18T07:13:18.095Z,88.0
2022-10-18T07:33:18.005Z,88.2
2022-10-18T07:53:18.023Z,87.2
2022-10-18T08:13:18.045Z,87.5
2022-10-18T08:33:17.993Z,87.0
2022-10-18T08:53:18.104Z,86.7
2022-10-18T09:13:18.008Z,84.1
2022-10-18T09:33:17.933Z,81.4
2022-10-18T09:53:17.953Z,78.8
2022-10-18T10:13:17.889Z,79.8
2022-10-18T10:33:17.885Z,78.4
2022-10-18T10:53:17.809Z,75.6
2022-10-18T11:13:17.830Z,73.5
2022-10-18T11:33:17.755Z,71.5
2022-10-18T11:53:17.781Z,70.6
2022-10-18T12:13:17.703Z,71.6
2022-10-18T12:33:17.731Z,70.5
2022-10-18T12:53:17.650Z,63.5
2022-10-18T13:13:17.676Z,65.6
2022-10-18T13:33:17.600Z,69.4
2022-10-18T13:53:17.627Z,67.3
2022-10-18T14:14:14.624Z,68.7
2022-10-18T14:33:17.517Z,70.9
2022-10-18T14:53:17.542Z,68.1
2022-10-18T15:13:17.466Z,71.8
2022-10-18T15:33:17.511Z,74.2
2022-10-18T15:53:17.417Z,79.4
2022-10-18T16:13:17.445Z,81.7
2022-10-18T16:33:17.357Z,83.5
2022-10-18T16:53:17.379Z,84.4
2022-10-18T17:13:17.403Z,84.9
2022-10-18T17:33:17.330Z,85.1
2022-10-18T17:53:17.356Z,86.1
2022-10-18T18:13:17.283Z,86.7
2022-10-18T18:33:17.296Z,87.5
2022-10-18T18:53:17.221Z,88.1
2022-10-18T19:13:17.241Z,88.5
2022-10-18T19:33:17.167Z,89.0
2022-10-18T19:53:17.210Z,88.9
2022-10-18T20:13:17.124Z,89.5
2022-10-18T20:33:17.139Z,89.7
2022-10-18T20:53:17.159Z,89.6
2022-10-18T21:13:17.113Z,89.6
2022-10-18T21:53:17.024Z,90.3
2022-10-18T22:13:17.048Z,90.3
2022-10-18T22:33:17.100Z,89.3
2022-10-18T22:53:16.984Z,89.4
2022-10-18T23:13:17.010Z,90.0
2022-10-18T23:33:17.024Z,90.0
2022-10-18T23:53:16.952Z,90.3
